createdAt,value
2022-10-19T00:00:35.107Z,8.3
2022-10-19T00:15:08.312Z,8.8
2022-10-19T00:29:40.605Z,8.5
2022-10-19T00:44:13.112Z,8.6
2022-10-19T00:58:47.273Z,8.6
2022-10-19T01:13:20.108Z,8.4
2022-10-19T01:27:52.234Z,7.4
2022-10-19T01:42:23.975Z,7.2
2022-10-19T01:56:57.722Z,7
2022-10-19T02:11:30.879Z,7
2022-10-19T02:26:04.514Z,7.7
2022-10-19T02:40:34.928Z,7
2022-10-19T02:55:05.609Z,7.4
2022-10-19T03:09:37.938Z,6.6
2022-10-19T03:24:10.923Z,6.6
2022-10-19T03:38:45.093Z,6.6
2022-10-19T03:53:16.428Z,6.6
2022-10-19T04:07:49.823Z,7.5
2022-10-19T04:22:21.227Z,6.9
2022-10-19T04:36:53.037Z,6.5
2022-10-19T04:51:32.635Z,7
2022-10-19T05:06:08.606Z,7.4
2022-10-19T05:20:37.696Z,7
2022-10-19T05:35:10.389Z,6.7
2022-10-19T05:49:49.867Z,7.3
2022-10-19T06:04:25.926Z,7.5
2022-10-19T06:18:57.093Z,7.7
2022-10-19T06:33:30.987Z,7.8
2022-10-19T06:48:08.300Z,8
2022-10-19T07:02:38.281Z,8
2022-10-19T07:17:11.557Z,7.9
2022-10-19T07:31:45.139Z,8.4
2022-10-19T07:46:18.637Z,8.7
2022-10-19T08:00:53.028Z,8.7
2022-10-19T08:15:30.142Z,9.9
2022-10-19T08:30:05.088Z,10.2
2022-10-19T08:44:38.073Z,11.1
2022-10-19T08:59:15.017Z,10.9
2022-10-19T09:14:06.936Z,11
2022-10-19T09:28:40.715Z,10.2
2022-10-19T09:43:10.339Z,10.3
2022-10-19T09:57:39.002Z,10.7
2022-10-19T10:12:17.449Z,10.7
2022-10-19T10:26:53.516Z,11
2022-10-19T10:41:23.159Z,10.9
2022-10-19T10:55:57.227Z,10.7
2022-10-19T11:10:30.202Z,11.2
2022-10-19T11:25:03.901Z,10.6
2022-10-19T11:39:36.882Z,10
2022-10-19T11:54:17.788Z,9.8
2022-10-19T12:08:57.019Z,10.6
2022-10-19T12:23:25.933Z,9.6
2022-10-19T12:38:06.210Z,10.2
2022-10-19T12:52:36.818Z,10.1
2022-10-19T13:07:08.885Z,9.2
2022-10-19T13:21:43.721Z,10
2022-10-19T13:36:17.513Z,9.5
2022-10-19T13:50:47.588Z,9.7
2022-10-19T14:05:18.196Z,10.1
2022-10-19T14:19:49.815Z,10
2022-10-19T14:34:24.047Z,9.6
2022-10-19T14:48:56.543Z,8.9
2022-10-19T15:03:29.154Z,9.3
2022-10-19T15:18:05.737Z,9.7
2022-10-19T15:32:37.012Z,9.7
2022-10-19T15:47:09.539Z,9.3
2022-10-19T16:01:41.556Z,9.6
2022-10-19T16:16:19.765Z,9.1
2022-10-19T16:30:54.738Z,9.2
2022-10-19T16:45:23.855Z,9.1
2022-10-19T16:59:55.850Z,9
2022-10-19T17:14:28.602Z,9.2
2022-10-19T17:29:01.838Z,9.3
2022-10-19T17:43:35.149Z,9.2
2022-10-19T17:58:09.874Z,9.3
2022-10-19T18:12:42.314Z,9.2
2022-10-19T18:27:20.975Z,9.5
2022-10-19T18:41:56.776Z,9.6
2022-10-19T18:56:27.038Z,9.5
2022-10-19T19:11:00.507Z,9.6
2022-10-19T19:25:38.943Z,9.9
2022-10-19T19:40:14.115Z,10.1
2022-10-19T19:54:43.737Z,10.1
2022-10-19T20:09:16.522Z,10.1
2022-10-19T20:23:49.873Z,10.5
2022-10-19T20:38:23.483Z,10.6
2022-10-19T20:52:56.857Z,10.6
2022-10-19T21:07:28.120Z,10.6
2022-10-19T21:22:01.865Z,10.9
2022-10-19T21:36:41.616Z,10.8
2022-10-19T21:51:11.250Z,10.8
2022-10-19T22:05:43.049Z,11
2022-10-19T22:20:16.064Z,10.9
2022-10-19T22:34:48.007Z,11
2022-10-19T22:49:20.933Z,11.1
2022-10-19T23:03:54.833Z,11
2022-10-19T23:18:34.081Z,10.8
2022-10-19T23:33:08.794Z,10.8
2022-10-19T23:47:39.393Z,10.6
